Time;durP1;ratioP1;P1;durP2;ratioP2;P2;SDS_P1;SDS_P2;PMS_P1;PMS_P2;Temp;Humidity;BMP_temperature;BMP_pressure;BME280_temperature;BME280_humidity;BME280_pressure;Samples;Min_cycle;Max_cycle;Signal;HPM_P1;HPM_P2
2021/04/04 00:02:00;;;;;;;24.45;5.47;;;5.40;99.90;;;6.51;67.65;101633.09;5038964;28;20049;-80
2021/04/04 00:04:26;;;;;;;20.38;4.32;;;5.40;99.90;;;6.56;68.00;101641.31;5038713;28;20045;-81
2021/04/04 00:06:52;;;;;;;16.75;4.35;;;5.40;99.90;;;6.57;67.42;101633.81;5025089;28;20037;-86
2021/04/04 00:09:19;;;;;;;17.10;4.85;;;5.40;99.90;;;6.56;67.85;101632.97;5033774;28;20393;-86
2021/04/04 00:11:49;;;;;;;18.63;4.85;;;5.40;99.90;;;6.59;67.96;101632.34;5052577;28;20068;-82
2021/04/04 00:14:15;;;;;;;16.17;3.90;;;5.40;99.90;;;6.54;68.42;101629.69;5035934;28;20094;-84
2021/04/04 00:16:42;;;;;;;19.90;4.65;;;5.40;99.90;;;6.53;67.31;101630.81;5036013;28;20059;-83
2021/04/04 00:19:08;;;;;;;19.50;3.85;;;5.50;99.90;;;6.59;67.39;101629.59;5036507;28;20033;-83
2021/04/04 00:21:34;;;;;;;29.80;5.93;;;5.50;99.90;;;6.65;66.30;101630.28;5036586;28;20585;-85
2021/04/04 00:24:04;;;;;;;20.20;4.20;;;5.50;99.90;;;6.57;67.15;101612.44;5037213;28;20021;-85
2021/04/04 00:26:30;;;;;;;18.33;4.20;;;5.50;99.90;;;6.67;66.43;101628.06;5038151;28;20387;-83
2021/04/04 00:28:56;;;;;;;21.52;5.38;;;5.50;99.90;;;6.61;66.35;101626.50;5040611;28;20404;-85
2021/04/04 00:31:22;;;;;;;22.73;4.38;;;5.50;99.90;;;6.59;66.21;101625.97;5040315;28;20101;-85
2021/04/04 00:33:48;;;;;;;23.35;4.85;;;5.50;99.90;;;6.60;66.51;101622.09;5055299;28;20033;-83
2021/04/04 00:36:14;;;;;;;21.98;5.80;;;5.50;99.90;;;6.56;66.66;101623.81;5035976;28;20152;-83
2021/04/04 00:38:41;;;;;;;22.80;4.88;;;5.40;99.90;;;6.48;67.45;101625.38;5036112;28;20029;-83
2021/04/04 00:41:07;;;;;;;15.50;4.50;;;5.40;99.90;;;6.45;67.07;101623.22;5035418;28;20112;-83
2021/04/04 00:43:33;;;;;;;24.42;5.07;;;5.40;99.90;;;6.51;67.23;101627.53;5052420;28;20056;-84
2021/04/04 00:45:59;;;;;;;19.05;5.13;;;5.40;99.90;;;6.45;67.63;101614.06;5035170;28;20021;-83
2021/04/04 00:48:25;;;;;;;19.65;5.00;;;5.40;99.90;;;6.49;67.49;101612.28;5052322;28;20125;-84
2021/04/04 00:50:52;;;;;;;19.30;4.75;;;5.30;99.90;;;6.50;67.16;101612.00;5052688;28;20033;-84
2021/04/04 00:53:17;;;;;;;27.33;5.72;;;5.40;99.90;;;6.43;67.65;101613.53;5034990;28;20025;-85
2021/04/04 00:55:44;;;;;;;31.13;6.45;;;5.30;99.90;;;6.44;67.61;101612.41;5034805;28;20079;-85
2021/04/04 00:58:12;;;;;;;22.45;4.70;;;5.30;99.90;;;6.39;67.44;101609.75;5034501;28;20101;-82
2021/04/04 01:00:38;;;;;;;22.58;5.15;;;5.30;99.90;;;6.41;67.32;101607.47;5034460;28;20025;-84
2021/04/04 01:03:04;;;;;;;22.00;4.22;;;5.30;99.90;;;6.40;67.84;101609.41;5034649;28;20482;-85
2021/04/04 01:05:41;;;;;;;20.80;5.25;;;5.20;99.90;;;6.34;67.35;101617.03;5034392;28;20030;-84
2021/04/04 01:08:10;;;;;;;18.70;4.38;;;5.20;99.90;;;6.33;67.39;101592.34;5026365;28;20029;-82
2021/04/04 01:10:44;;;;;;;17.30;4.32;;;5.20;99.90;;;6.34;67.33;101599.56;5013472;28;20034;-84
2021/04/04 01:13:52;;;;;;;13.63;4.18;;;5.20;99.90;;;6.42;67.38;101601.63;5014693;28;20088;-84
2021/04/04 01:16:28;;;;;;;20.90;5.10;;;5.20;99.90;;;6.42;66.63;101600.81;5015645;28;20030;-85
2021/04/04 01:19:25;;;;;;;19.27;5.10;;;5.20;99.90;;;6.42;66.53;101607.19;5014651;28;20410;-84
2021/04/04 01:22:45;;;;;;;17.35;4.25;;;5.20;99.90;;;6.42;66.23;101609.13;5014366;28;20426;-83
2021/04/04 01:25:38;;;;;;;14.93;3.53;;;5.20;99.90;;;6.40;65.89;101612.19;5008010;28;20042;-82
2021/04/04 01:28:34;;;;;;;19.75;4.43;;;5.30;99.90;;;6.35;66.25;101603.97;5014535;28;20053;-85
2021/04/04 01:31:02;;;;;;;14.38;3.80;;;5.20;99.90;;;6.38;65.94;101594.22;5016203;28;20026;-83
2021/04/04 01:33:35;;;;;;;18.42;4.63;;;5.20;99.90;;;6.33;65.77;101606.22;5014572;28;20037;-83
2021/04/04 01:36:07;;;;;;;18.33;5.13;;;5.20;99.90;;;6.32;65.96;101601.81;5016222;28;20052;-84
2021/04/04 01:38:41;;;;;;;23.60;5.25;;;5.20;99.90;;;6.25;66.12;101606.94;5014136;28;20030;-84
2021/04/04 01:41:26;;;;;;;19.90;5.13;;;5.20;99.90;;;6.25;66.31;101601.41;5013637;28;20033;-84
2021/04/04 01:44:03;;;;;;;22.88;5.15;;;5.20;99.90;;;6.30;66.63;101602.13;5013948;28;20124;-84
2021/04/04 01:46:32;;;;;;;17.98;4.50;;;5.20;99.90;;;6.29;66.64;101608.78;5015035;28;20022;-85
2021/04/04 01:48:59;;;;;;;23.67;5.72;;;5.20;99.90;;;6.29;66.81;101608.00;5013946;28;20712;-85
2021/04/04 01:51:27;;;;;;;21.60;4.60;;;5.20;99.90;;;6.27;66.60;101607.44;5013761;28;20026;-84
2021/04/04 01:53:58;;;;;;;15.55;4.05;;;5.20;99.90;;;6.30;66.89;101609.63;5013198;28;20053;-85
2021/04/04 01:56:26;;;;;;;23.13;4.97;;;5.20;99.90;;;6.30;66.53;101610.44;5013724;28;20033;-85
2021/04/04 01:58:54;;;;;;;16.23;5.40;;;5.20;99.90;;;6.28;65.90;101603.56;5013977;28;20453;-84
2021/04/04 02:01:22;;;;;;;21.02;5.38;;;5.10;99.90;;;6.26;66.10;101603.84;5014590;28;20034;-84
2021/04/04 02:03:48;;;;;;;18.65;5.07;;;5.10;99.90;;;6.22;66.13;101602.84;5025043;28;20304;-85
2021/04/04 02:06:16;;;;;;;15.48;4.25;;;5.10;99.90;;;6.26;66.54;101600.28;5031101;28;20116;-83
2021/04/04 02:08:45;;;;;;;19.38;4.95;;;5.10;99.90;;;6.23;66.44;101600.88;5025785;28;20029;-83
2021/04/04 02:11:21;;;;;;;18.98;4.10;;;5.10;99.90;;;6.18;66.59;101593.47;5033047;28;20030;-85
2021/04/04 02:13:51;;;;;;;18.30;5.60;;;5.10;99.90;;;6.25;66.46;101593.91;5033509;28;20112;-83
2021/04/04 02:16:20;;;;;;;17.38;4.45;;;5.10;99.90;;;6.18;66.13;101587.09;5033658;28;20033;-82
2021/04/04 02:18:47;;;;;;;21.27;4.72;;;5.10;99.90;;;6.20;66.28;101587.59;5033325;28;20584;-84
2021/04/04 02:21:15;;;;;;;17.60;4.40;;;5.10;99.90;;;6.17;66.43;101579.91;5032649;28;20092;-84
2021/04/04 02:23:43;;;;;;;21.25;4.47;;;5.00;99.90;;;6.13;66.13;101582.47;5033673;28;20037;-83
2021/04/04 02:26:09;;;;;;;26.48;5.30;;;5.10;99.90;;;6.15;66.46;101568.28;5034602;28;20033;-85
2021/04/04 02:28:35;;;;;;;25.75;5.05;;;5.00;99.90;;;6.17;66.67;101571.56;5033653;28;20100;-83
2021/04/04 02:31:04;;;;;;;21.17;5.35;;;5.00;99.90;;;6.11;66.49;101568.09;5033219;28;20022;-81
2021/04/04 02:33:44;;;;;;;17.85;4.70;;;5.00;99.90;;;6.16;66.39;101568.00;5033554;28;20036;-85
2021/04/04 02:36:15;;;;;;;18.90;4.13;;;5.00;99.90;;;6.10;66.24;101571.19;5033042;28;20036;-83
2021/04/04 02:38:50;;;;;;;18.90;4.68;;;5.00;99.90;;;6.12;66.00;101569.75;5049767;28;20493;-82
2021/04/04 02:41:18;;;;;;;17.83;4.30;;;5.00;99.90;;;6.11;66.43;101572.81;5032566;28;20029;-84
2021/04/04 02:43:50;;;;;;;15.75;4.18;;;5.00;99.90;;;6.14;66.28;101563.88;5033200;28;20052;-83
2021/04/04 02:46:23;;;;;;;21.85;4.88;;;5.00;99.90;;;6.09;66.19;101569.53;5032547;28;20030;-84
2021/04/04 02:49:05;;;;;;;22.50;4.95;;;5.10;99.90;;;6.15;66.84;101563.56;5032553;28;20141;-85
2021/04/04 02:51:50;;;;;;;21.73;4.85;;;5.00;99.90;;;6.15;66.47;101574.66;5032051;28;20033;-84
2021/04/04 02:54:25;;;;;;;17.38;4.45;;;5.00;99.90;;;6.17;65.87;101577.13;5033794;28;20022;-82
2021/04/04 02:56:54;;;;;;;23.70;6.50;;;5.00;99.90;;;6.12;66.11;101583.59;5032261;28;20022;-84
2021/04/04 02:59:40;;;;;;;20.13;4.63;;;5.00;99.90;;;6.14;66.42;101584.13;5032342;28;20321;-85
2021/04/04 03:02:10;;;;;;;15.35;4.78;;;5.00;99.90;;;6.10;66.16;101576.72;5032474;28;20107;-83
2021/04/04 03:04:40;;;;;;;16.20;5.05;;;5.00;99.90;;;6.10;66.68;101577.53;5032190;28;20632;-84
2021/04/04 03:07:09;;;;;;;26.13;5.13;;;5.00;99.90;;;6.11;66.77;101581.13;5032612;28;20032;-87
2021/04/04 03:09:43;;;;;;;20.85;5.10;;;5.00;99.90;;;6.14;66.46;101577.75;5012891;28;20036;-84
2021/04/04 03:12:12;;;;;;;18.63;4.40;;;5.10;99.90;;;6.12;65.75;101577.22;5012882;28;20022;-85
2021/04/04 03:14:42;;;;;;;20.58;4.88;;;5.00;99.90;;;6.16;66.05;101575.50;5012937;28;20345;-85
2021/04/04 03:17:10;;;;;;;22.33;4.45;;;5.00;99.90;;;6.12;65.47;101571.69;5012295;28;20030;-85
2021/04/04 03:19:41;;;;;;;19.45;3.88;;;5.00;99.90;;;6.12;65.77;101574.47;5012411;28;20030;-83
2021/04/04 03:22:10;;;;;;;15.98;4.32;;;5.10;99.90;;;6.11;65.92;101568.09;5011993;28;20057;-84
2021/04/04 03:24:39;;;;;;;16.60;3.90;;;5.00;99.90;;;6.14;65.44;101566.63;5012460;28;20398;-85
2021/04/04 03:27:07;;;;;;;20.98;4.28;;;5.00;99.90;;;6.16;65.20;101575.50;5012560;28;20129;-83
2021/04/04 03:29:35;;;;;;;22.83;4.10;;;5.00;99.90;;;6.13;65.79;101567.78;5013631;28;20026;-83
2021/04/04 03:32:02;;;;;;;20.05;4.47;;;5.00;99.90;;;6.16;65.86;101569.94;5013132;28;20030;-84
2021/04/04 03:34:30;;;;;;;17.52;4.68;;;5.00;99.90;;;6.14;65.34;101574.97;5016563;28;20409;-85
2021/04/04 03:36:58;;;;;;;29.33;4.72;;;5.10;99.90;;;6.10;65.84;101571.97;5016119;28;20394;-84
2021/04/04 03:39:26;;;;;;;21.35;4.50;;;5.00;99.90;;;6.14;65.38;101577.75;5016367;28;20069;-84
2021/04/04 03:41:56;;;;;;;25.05;4.75;;;5.00;99.90;;;6.19;65.13;101577.66;5016261;28;20036;-85
2021/04/04 03:44:28;;;;;;;17.58;4.38;;;5.00;99.90;;;6.19;65.20;101577.66;5017729;28;20042;-85
2021/04/04 03:46:57;;;;;;;18.17;4.35;;;5.00;99.90;;;6.17;64.90;101574.34;5015909;28;20030;-84
2021/04/04 03:49:24;;;;;;;16.80;3.72;;;5.00;99.90;;;6.14;64.89;101566.63;5015844;28;20041;-84
2021/04/04 03:51:57;;;;;;;26.33;5.40;;;5.10;99.90;;;6.18;64.35;101560.19;5016253;28;20494;-86
2021/04/04 03:54:26;;;;;;;18.08;4.68;;;5.00;99.90;;;6.19;64.23;101563.78;5016554;28;20022;-83
2021/04/04 03:56:56;;;;;;;12.98;3.10;;;5.00;99.90;;;6.16;64.07;101562.47;5016242;28;20494;-84
2021/04/04 03:59:27;;;;;;;15.13;3.63;;;5.00;99.90;;;6.15;64.28;101557.19;5016516;28;20026;-85
2021/04/04 04:01:55;;;;;;;20.17;4.35;;;5.00;99.90;;;6.22;63.65;101563.19;5015713;28;20026;-84
2021/04/04 04:04:22;;;;;;;15.30;3.90;;;5.10;99.90;;;6.20;63.54;101555.16;5015858;28;20030;-88
2021/04/04 04:06:52;;;;;;;17.92;4.35;;;5.10;99.90;;;6.17;63.81;101546.59;5016552;28;20121;-85
2021/04/04 04:09:19;;;;;;;15.40;3.22;;;5.00;99.90;;;6.19;63.53;101549.91;5015890;28;20030;-82
2021/04/04 04:11:50;;;;;;;21.13;3.60;;;5.10;99.90;;;6.24;63.37;101555.34;5015652;28;20092;-85
2021/04/04 04:14:22;;;;;;;12.60;3.75;;;5.00;99.90;;;6.12;63.67;101535.63;5015671;28;20120;-84
2021/04/04 04:16:49;;;;;;;20.70;4.03;;;5.10;99.90;;;6.18;64.04;101539.94;5015817;28;20477;-83
2021/04/04 04:19:17;;;;;;;19.42;4.30;;;5.10;99.90;;;6.24;63.79;101538.72;5016281;28;20030;-85
2021/04/04 04:21:45;;;;;;;15.68;3.83;;;5.10;99.90;;;6.23;63.88;101542.59;5031409;28;20022;-82
2021/04/04 04:24:15;;;;;;;17.80;4.07;;;5.10;99.90;;;6.19;64.04;101536.06;5033191;28;20030;-85
2021/04/04 04:26:47;;;;;;;15.02;4.40;;;5.10;99.90;;;6.19;64.02;101530.50;5014630;28;20136;-84
2021/04/04 04:29:17;;;;;;;16.73;4.50;;;5.10;99.90;;;6.11;64.68;101540.34;5014885;28;20030;-83
2021/04/04 04:31:53;;;;;;;14.45;3.88;;;5.00;99.90;;;6.09;64.98;101525.97;5014752;28;20382;-84
2021/04/04 04:34:22;;;;;;;18.75;4.47;;;5.10;99.90;;;6.15;64.94;101535.00;5014375;28;20053;-83
2021/04/04 04:36:53;;;;;;;20.45;4.47;;;5.00;99.90;;;6.13;64.85;101537.28;5016028;28;20054;-85
2021/04/04 04:39:21;;;;;;;18.48;4.97;;;5.00;99.90;;;6.12;65.23;101541.19;5014991;28;20029;-83
2021/04/04 04:41:52;;;;;;;24.50;4.43;;;5.00;99.90;;;6.10;65.31;101535.91;5015110;28;20581;-85
2021/04/04 04:44:29;;;;;;;20.00;4.90;;;5.10;99.90;;;6.12;65.73;101535.63;5013656;28;20037;-84
2021/04/04 04:46:56;;;;;;;16.65;4.35;;;5.00;99.90;;;6.05;64.95;101530.47;5014580;28;20041;-84
2021/04/04 04:49:24;;;;;;;17.85;4.93;;;5.00;99.90;;;6.01;65.31;101518.34;5014706;28;20224;-86
2021/04/04 04:51:50;;;;;;;17.63;4.38;;;5.00;99.90;;;6.10;65.90;101526.81;5016630;28;20101;-82
2021/04/04 04:54:17;;;;;;;22.85;5.53;;;5.00;99.90;;;6.01;66.18;101520.28;5014803;28;20037;-86
2021/04/04 04:56:46;;;;;;;22.13;4.72;;;5.00;99.90;;;6.07;65.87;101527.41;5015412;28;20041;-82
2021/04/04 04:59:14;;;;;;;24.08;4.40;;;5.00;99.90;;;6.02;65.98;101521.94;5015139;28;20030;-84
2021/04/04 05:01:50;;;;;;;24.17;5.25;;;5.00;99.90;;;6.03;65.93;101523.59;5015400;28;20456;-85
2021/04/04 05:04:16;;;;;;;14.82;5.15;;;5.00;99.90;;;6.01;65.83;101518.34;5014008;28;20033;-85
2021/04/04 05:06:47;;;;;;;19.10;4.18;;;5.00;99.90;;;6.04;65.49;101519.69;5014958;28;20129;-85
2021/04/04 05:09:15;;;;;;;12.32;4.00;;;5.00;99.90;;;6.07;66.01;101524.66;5031618;28;20116;-84
2021/04/04 05:11:49;;;;;;;25.50;4.85;;;5.00;99.90;;;6.09;65.97;101530.69;5034890;28;20052;-85
2021/04/04 05:14:16;;;;;;;17.67;4.63;;;5.00;99.90;;;6.09;66.36;101530.69;5033725;28;20494;-84
2021/04/04 05:16:44;;;;;;;20.17;4.03;;;5.00;99.90;;;6.13;66.17;101531.72;5034222;28;20182;-84
2021/04/04 05:19:13;;;;;;;21.67;4.55;;;5.00;99.90;;;6.09;66.35;101531.53;5033988;28;20029;-82
2021/04/04 05:21:43;;;;;;;14.38;4.28;;;5.00;99.90;;;6.14;66.35;101533.34;5050906;28;20029;-83
2021/04/04 05:24:13;;;;;;;21.90;5.35;;;5.00;99.90;;;6.13;66.25;101538.06;5033304;28;20107;-84
2021/04/04 05:26:46;;;;;;;17.70;5.20;;;5.00;99.90;;;6.13;66.00;101537.28;5034180;28;20033;-86
2021/04/04 05:29:16;;;;;;;15.18;4.60;;;5.10;99.90;;;6.17;66.19;101533.56;5033665;28;20147;-81
2021/04/04 05:31:51;;;;;;;23.33;4.65;;;5.00;99.90;;;6.15;66.00;101535.00;5034014;28;20097;-82
2021/04/04 05:34:27;;;;;;;20.42;4.68;;;5.00;99.90;;;6.19;66.30;101539.66;5034151;28;20025;-86
2021/04/04 05:37:05;;;;;;;18.15;4.38;;;5.00;99.90;;;6.19;66.13;101542.44;5033260;28;20025;-84
2021/04/04 05:39:36;;;;;;;15.40;4.85;;;5.00;99.90;;;6.16;66.12;101534.72;5033520;28;20087;-85
2021/04/04 05:42:12;;;;;;;18.02;4.45;;;5.00;99.90;;;6.18;65.44;101531.63;5033999;28;20056;-84
2021/04/04 05:44:55;;;;;;;17.50;4.70;;;5.00;99.90;;;6.22;65.34;101536.25;5034683;28;20021;-85
2021/04/04 05:47:43;;;;;;;20.25;4.85;;;5.10;99.90;;;6.24;65.37;101533.16;5032158;28;20030;-85
2021/04/04 05:50:28;;;;;;;15.27;4.47;;;5.10;99.90;;;6.20;65.11;101532.94;5033790;28;20038;-86
2021/04/04 05:53:22;;;;;;;23.92;4.20;;;5.10;99.90;;;6.21;65.59;101528.22;5034138;28;20097;-85
2021/04/04 05:56:26;;;;;;;19.10;4.30;;;5.10;99.90;;;6.25;65.01;101526.50;5034086;28;20030;-86
2021/04/04 05:59:09;;;;;;;15.82;3.95;;;5.10;99.90;;;6.22;63.05;101532.66;5034155;28;20194;-84
2021/04/04 06:02:03;;;;;;;16.25;4.13;;;5.10;99.90;;;6.28;63.78;101529.47;5049952;28;20033;-86
2021/04/04 06:04:55;;;;;;;16.60;4.03;;;5.20;99.90;;;6.31;63.00;101525.25;5034819;28;20508;-85
2021/04/04 06:07:36;;;;;;;13.48;3.88;;;5.20;99.90;;;6.35;63.08;101532.66;5044553;28;20059;-87
2021/04/04 06:10:20;;;;;;;11.57;3.22;;;5.20;99.90;;;6.30;62.87;101524.44;5044458;28;20097;-85
2021/04/04 06:13:26;;;;;;;17.73;3.72;;;5.30;99.90;;;6.28;63.00;101532.25;5037550;28;20022;-84
2021/04/04 06:16:29;;;;;;;15.80;3.40;;;5.20;99.90;;;6.40;63.46;101511.47;5032899;28;20032;-86
2021/04/04 06:19:41;;;;;;;12.50;3.70;;;5.30;99.90;;;6.42;62.63;101520.34;5031901;28;20096;-86
2021/04/04 06:22:28;;;;;;;10.18;3.30;;;5.30;99.90;;;6.47;62.81;101520.22;5032628;28;20094;-85
2021/04/04 06:25:14;;;;;;;18.38;3.10;;;5.30;99.90;;;6.44;62.25;101529.97;5033190;28;20068;-84
2021/04/04 06:27:51;;;;;;;;;;;5.30;99.90;;;6.45;62.16;101522.47;5049979;28;20029;-85
2021/04/04 06:33:26;;;;;;;18.02;3.75;;;5.40;99.90;;;6.46;62.00;101529.66;5033524;28;20482;-85
2021/04/04 06:36:04;;;;;;;9.15;2.88;;;5.40;99.90;;;6.56;62.45;101530.28;5032094;28;20142;-86
2021/04/04 06:39:06;;;;;;;18.67;3.22;;;5.40;99.90;;;6.59;61.97;101528.81;5033701;28;20045;-85
2021/04/04 06:41:52;;;;;;;13.68;3.38;;;5.50;99.90;;;6.64;61.91;101529.56;5047058;28;20104;-82
2021/04/04 06:44:53;;;;;;;17.70;3.23;;;5.50;99.90;;;6.74;62.23;101525.75;5047133;28;20107;-84
2021/04/04 06:47:56;;;;;;;12.73;3.00;;;5.60;99.90;;;6.81;62.01;101528.88;5033557;28;20760;-84
2021/04/04 06:50:26;;;;;;;10.73;2.85;;;5.60;99.90;;;6.83;61.54;101529.41;5035516;28;20052;-86
2021/04/04 06:53:28;;;;;;;12.77;3.33;;;5.70;99.90;;;6.82;61.02;101517.47;5031050;28;20485;-87
2021/04/04 06:56:06;;;;;;;9.55;3.20;;;5.70;99.90;;;6.86;60.88;101526.03;5031591;28;20175;-88
2021/04/04 06:59:28;;;;;;;11.25;2.70;;;5.70;99.90;;;6.93;60.97;101517.25;5031436;28;20040;-85
2021/04/04 07:02:06;;;;;;;9.77;2.85;;;5.80;99.90;;;6.97;60.71;101524.63;5030993;28;20129;-81
2021/04/04 07:04:54;;;;;;;10.57;2.22;;;5.80;99.90;;;7.02;60.75;101529.25;5031420;28;20029;-87
2021/04/04 07:08:37;;;;;;;8.35;3.08;;;5.80;99.90;;;7.01;60.62;101531.22;5029835;28;20588;-85
2021/04/04 07:11:20;;;;;;;16.85;3.45;;;5.80;99.90;;;7.03;60.69;101528.13;5007290;28;20050;-85
2021/04/04 07:14:49;;;;;;;11.68;3.38;;;5.80;99.90;;;7.04;61.47;101535.31;5011653;28;20073;-86
2021/04/04 07:18:29;;;;;;;7.97;2.85;;;5.90;99.90;;;6.92;61.40;101523.94;5012338;28;20446;-82
2021/04/04 07:21:25;;;;;;;9.10;3.13;;;5.80;99.90;;;7.05;61.48;101528.63;4991345;28;20085;-85
2021/04/04 07:25:03;;;;;;;15.32;3.30;;;5.90;99.90;;;7.15;61.43;101529.22;5012981;28;20113;-86
2021/04/04 07:27:59;;;;;;;8.85;2.83;;;5.90;99.90;;;7.30;61.21;101528.03;5013091;28;20532;-85
2021/04/04 07:30:36;;;;;;;8.98;2.50;;;6.00;99.90;;;7.30;61.12;101525.25;5012237;28;20109;-84
2021/04/04 07:33:35;;;;;;;14.55;3.83;;;6.10;99.90;;;7.27;60.87;101528.66;5011853;28;20084;-85
2021/04/04 07:36:31;;;;;;;13.07;3.28;;;6.10;99.90;;;7.18;61.14;101525.00;5014148;28;20029;-86
2021/04/04 07:39:17;;;;;;;9.30;2.53;;;6.00;99.90;;;7.25;61.58;101526.22;5019042;28;20025;-86
2021/04/04 07:42:33;;;;;;;15.07;3.08;;;6.10;99.90;;;7.27;60.76;101523.94;5011266;28;20105;-85
2021/04/04 07:46:11;;;;;;;13.15;4.45;;;6.20;99.90;;;7.07;61.03;101523.56;5012344;28;20022;-86
2021/04/04 07:48:56;;;;;;;17.30;6.88;;;6.10;99.90;;;7.07;61.53;101521.63;5006552;28;20042;-83
2021/04/04 07:51:37;;;;;;;16.92;5.88;;;6.00;99.90;;;7.08;61.44;101523.28;5012462;28;20032;-84
2021/04/04 07:54:11;;;;;;;14.05;5.30;;;6.00;99.90;;;7.05;62.40;101520.31;5012982;28;20100;-85
2021/04/04 07:56:49;;;;;;;13.48;5.53;;;6.00;99.90;;;7.22;61.63;101526.84;5011809;28;20036;-86
2021/04/04 07:59:31;;;;;;;18.38;5.35;;;6.10;99.90;;;7.25;61.38;101523.44;5012089;28;20505;-85
2021/04/04 08:02:09;;;;;;;16.17;4.70;;;6.10;99.90;;;7.29;61.00;101523.59;5011910;28;20026;-84
2021/04/04 08:04:51;;;;;;;16.58;5.45;;;6.20;99.90;;;7.24;61.83;101524.56;5011910;28;20042;-84
2021/04/04 08:07:48;;;;;;;13.13;5.07;;;6.20;99.90;;;7.32;61.44;101532.13;5027943;28;20026;-83
2021/04/04 08:10:47;;;;;;;19.27;5.35;;;6.10;99.90;;;7.25;62.25;101522.59;5015033;28;20041;-84
2021/04/04 08:13:43;;;;;;;14.60;5.43;;;6.20;99.90;;;7.31;62.36;101535.25;5013654;28;20033;-86
2021/04/04 08:16:36;;;;;;;16.48;5.70;;;6.20;99.90;;;7.29;62.50;101531.94;5013990;28;20033;-84
2021/04/04 08:19:02;;;;;;;15.82;5.93;;;6.20;99.90;;;7.32;62.77;101528.56;5013781;28;20540;-85
2021/04/04 08:21:39;;;;;;;12.00;5.15;;;6.20;99.90;;;7.22;62.89;101531.56;5032144;28;20034;-86
2021/04/04 08:24:36;;;;;;;10.98;4.18;;;6.10;99.90;;;7.26;63.38;101544.50;5017788;28;20041;-84
2021/04/04 08:27:30;;;;;;;10.85;4.45;;;6.10;99.90;;;7.24;63.68;101535.69;5015935;28;20056;-84
2021/04/04 08:30:17;;;;;;;11.13;4.85;;;6.10;99.90;;;7.36;63.15;101544.25;5015566;28;20402;-82
2021/04/04 08:33:10;;;;;;;9.07;3.83;;;6.20;99.90;;;7.24;62.90;101544.00;5016048;28;20037;-83
2021/04/04 08:35:44;;;;;;;11.07;4.07;;;6.20;99.90;;;7.28;63.41;101535.88;5024477;28;20030;-83
2021/04/04 08:38:28;;;;;;;9.70;2.88;;;6.20;99.90;;;7.36;62.90;101543.44;5017094;28;20026;-83
2021/04/04 08:41:01;;;;;;;7.13;3.10;;;6.20;99.90;;;7.39;62.48;101540.03;5019014;28;20029;-84
2021/04/04 08:43:28;;;;;;;13.90;3.95;;;6.30;99.90;;;7.43;63.43;101543.81;5018806;28;20535;-82
2021/04/04 08:46:25;;;;;;;10.55;3.33;;;6.30;99.90;;;7.43;62.54;101538.28;5017939;28;20037;-82
2021/04/04 08:48:55;;;;;;;10.40;3.28;;;6.30;99.90;;;7.42;62.75;101542.19;5016337;28;20026;-83
2021/04/04 08:51:28;;;;;;;6.57;2.88;;;6.30;99.90;;;7.46;62.70;101532.06;5016480;28;20482;-83
2021/04/04 08:53:59;;;;;;;7.93;4.18;;;6.40;99.90;;;7.45;63.13;101541.53;5015430;28;20026;-86
2021/04/04 08:56:29;;;;;;;8.73;3.05;;;6.30;99.90;;;7.44;64.08;101551.03;5015563;28;20120;-84
2021/04/04 08:59:06;;;;;;;9.02;2.67;;;6.30;99.90;;;7.40;63.56;101541.69;5015039;28;20044;-83
2021/04/04 09:01:32;;;;;;;7.88;2.85;;;6.40;99.90;;;7.40;63.88;101545.28;5015206;28;20125;-83
2021/04/04 09:04:06;;;;;;;11.80;2.95;;;6.40;99.90;;;7.15;64.84;101536.75;5016294;28;20116;-84
2021/04/04 09:06:39;;;;;;;7.43;4.37;;;6.30;99.90;;;7.18;65.00;101538.88;5016181;28;20116;-85
2021/04/04 09:09:33;;;;;;;14.35;3.83;;;6.20;99.90;;;7.26;65.45;101541.72;5016474;28;20030;-88
2021/04/04 09:12:00;;;;;;;10.13;3.97;;;6.30;99.90;;;7.39;64.77;101540.84;5015151;28;20087;-84
2021/04/04 09:14:37;;;;;;;12.88;4.00;;;6.30;99.90;;;7.41;64.87;101541.38;5015640;28;20022;-85
2021/04/04 09:17:11;;;;;;;14.18;5.47;;;6.40;99.90;;;7.59;64.13;101535.94;5030938;28;20037;-83
2021/04/04 09:19:41;;;;;;;9.68;4.75;;;6.40;99.90;;;7.59;64.11;101535.94;5028043;28;20466;-85
2021/04/04 09:22:21;;;;;;;7.53;3.20;;;6.50;99.90;;;7.65;63.90;101535.47;5016449;28;20026;-86
2021/04/04 09:25:01;;;;;;;12.18;4.13;;;6.50;99.90;;;7.71;63.43;101536.16;5021260;28;20057;-82
2021/04/04 09:27:36;;;;;;;9.95;3.70;;;6.60;99.90;;;7.77;63.44;101546.84;5014785;28;20362;-85
2021/04/04 09:30:23;;;;;;;11.20;3.95;;;6.60;99.90;;;7.71;63.83;101542.56;5024159;28;20018;-86
2021/04/04 09:33:17;;;;;;;11.88;5.07;;;6.60;99.90;;;7.55;64.22;101532.13;5019895;28;20033;-83
2021/04/04 09:35:46;;;;;;;10.70;3.80;;;6.60;99.90;;;7.56;64.52;101526.25;5022981;28;20057;-82
2021/04/04 09:38:17;;;;;;;11.73;3.35;;;6.50;99.90;;;7.62;64.06;101526.94;5012799;28;20030;-81
2021/04/04 09:40:47;;;;;;;6.05;2.97;;;6.50;99.90;;;7.74;64.86;101521.63;5013933;28;20057;-82
2021/04/04 09:43:16;;;;;;;14.00;4.22;;;6.50;99.90;;;8.01;64.54;101531.75;5013713;28;20383;-84
2021/04/04 09:45:43;;;;;;;8.40;3.97;;;6.70;99.90;;;8.07;63.90;101522.13;5014078;28;20109;-86
2021/04/04 09:48:26;;;;;;;10.68;3.88;;;6.80;99.90;;;8.30;63.42;101518.19;5014010;28;20128;-84
2021/04/04 09:51:09;;;;;;;13.55;5.47;;;7.00;99.90;;;8.30;61.71;101519.00;5013983;28;20061;-84
2021/04/04 09:53:48;;;;;;;10.85;4.45;;;7.00;99.90;;;8.29;61.91;101522.09;5013766;28;20022;-84
2021/04/04 09:56:27;;;;;;;9.40;4.80;;;7.00;99.90;;;8.33;62.20;101517.53;5014954;28;20026;-86
2021/04/04 09:58:54;;;;;;;12.18;4.18;;;7.00;99.90;;;8.22;62.50;101516.16;5013390;28;20034;-84
2021/04/04 10:01:27;;;;;;;11.70;4.25;;;7.10;99.90;;;8.30;62.09;101516.22;5015031;28;20109;-85
2021/04/04 10:04:07;;;;;;;13.48;4.82;;;7.10;99.90;;;8.31;61.51;101509.53;5013855;28;20232;-84
2021/04/04 10:06:36;;;;;;;13.63;4.75;;;7.10;99.90;;;8.21;62.09;101507.00;5013248;28;20469;-84
2021/04/04 10:09:13;;;;;;;10.27;3.97;;;7.00;99.90;;;8.22;61.70;101511.38;5028066;28;20448;-85
2021/04/04 10:11:39;;;;;;;8.95;4.32;;;7.00;99.90;;;8.16;61.89;101503.50;5033155;28;20063;-86
2021/04/04 10:14:15;;;;;;;11.95;3.90;;;7.00;99.90;;;8.00;62.72;101496.72;5033971;28;20057;-88
2021/04/04 10:16:42;;;;;;;10.30;3.90;;;6.90;99.90;;;7.83;63.22;101497.50;5033706;28;20025;-83
2021/04/04 10:19:17;;;;;;;9.10;3.80;;;6.80;99.90;;;7.77;64.17;101491.22;5031488;28;20041;-84
2021/04/04 10:22:00;;;;;;;12.00;4.65;;;6.70;99.90;;;7.78;64.55;101492.03;5032526;28;20533;-86
2021/04/04 10:24:38;;;;;;;8.95;3.97;;;6.70;99.90;;;7.53;64.83;101501.88;5031652;28;20064;-87
2021/04/04 10:27:26;;;;;;;10.13;3.60;;;6.60;99.90;;;7.64;65.34;101500.47;5032009;28;20083;-87
2021/04/04 10:30:18;;;;;;;10.10;3.78;;;6.60;99.90;;;7.63;65.84;101490.50;5032372;28;20390;-86
2021/04/04 10:32:49;;;;;;;15.00;3.53;;;6.60;99.90;;;7.76;64.75;101491.56;5031768;28;20496;-85
2021/04/04 10:35:37;;;;;;;8.25;4.38;;;6.60;99.90;;;7.92;65.14;101482.47;5032670;28;20120;-86
2021/04/04 10:38:11;;;;;;;11.57;4.07;;;6.70;99.90;;;7.90;65.06;101479.19;5033598;28;20109;-85
2021/04/04 10:40:57;;;;;;;9.80;4.25;;;6.80;99.90;;;8.15;63.73;101483.22;5032031;28;20478;-85
2021/04/04 10:43:37;;;;;;;6.57;3.33;;;7.00;99.90;;;8.18;64.10;101476.19;5035732;28;20029;-82
2021/04/04 10:46:17;;;;;;;12.35;5.93;;;7.00;99.90;;;8.18;64.18;101473.41;5039211;28;20033;-87
2021/04/04 10:48:48;;;;;;;18.02;8.05;;;7.00;99.90;;;8.14;64.08;101473.25;5032814;28;20061;-81
2021/04/04 10:51:20;;;;;;;11.68;4.45;;;7.00;99.90;;;8.04;64.52;101465.19;5034208;28;20111;-83
2021/04/04 10:53:48;;;;;;;11.32;4.88;;;7.00;99.90;;;8.04;65.57;101464.34;5032519;28;20164;-85
2021/04/04 10:56:16;;;;;;;13.32;5.30;;;6.90;99.90;;;7.89;65.66;101463.66;5033701;28;20029;-84
2021/04/04 10:58:44;;;;;;;10.73;5.30;;;6.90;99.90;;;7.73;66.41;101464.38;5033194;28;20022;-85
2021/04/04 11:01:14;;;;;;;12.32;5.45;;;6.80;99.90;;;7.74;66.54;101469.59;5033532;28;20029;-86
2021/04/04 11:03:43;;;;;;;13.43;5.68;;;6.70;99.90;;;7.68;66.72;101470.88;5032688;28;20033;-89
2021/04/04 11:06:14;;;;;;;7.88;4.38;;;6.60;99.90;;;7.78;66.54;101459.50;5033708;28;20488;-84